sensor_id;sensor_type;location;lat;lon;timestamp;temperature;humidity
15143;DHT22;7672;50.834;6.286;2023-12-22T00:00:39;9.00;99.90
15143;DHT22;7672;50.834;6.286;2023-12-22T00:03:06;9.00;99.90
15143;DHT22;7672;50.834;6.286;2023-12-22T00:05:34;9.00;99.90
15143;DHT22;7672;50.834;6.286;2023-12-22T00:08:00;9.00;99.90
15143;DHT22;7672;50.834;6.286;2023-12-22T00:10:27;9.00;99.90
15143;DHT22;7672;50.834;6.286;2023-12-22T00:12:54;9.10;99.90
15143;DHT22;7672;50.834;6.286;2023-12-22T00:15:21;8.90;99.90
15143;DHT22;7672;50.834;6.286;2023-12-22T00:17:48;8.90;99.90
15143;DHT22;7672;50.834;6.286;2023-12-22T00:20:15;8.90;99.90
15143;DHT22;7672;50.834;6.286;2023-12-22T00:22:42;8.90;99.90
15143;DHT22;7672;50.834;6.286;2023-12-22T00:25:09;8.90;99.90
15143;DHT22;7672;50.834;6.286;2023-12-22T00:27:36;8.90;99.90
15143;DHT22;7672;50.834;6.286;2023-12-22T00:30:03;8.90;99.90
15143;DHT22;7672;50.834;6.286;2023-12-22T00:32:30;8.90;99.90
15143;DHT22;7672;50.834;6.286;2023-12-22T00:34:57;8.90;99.90
15143;DHT22;7672;50.834;6.286;2023-12-22T00:37:25;8.90;99.90
15143;DHT22;7672;50.834;6.286;2023-12-22T00:39:52;8.90;99.90
15143;DHT22;7672;50.834;6.286;2023-12-22T00:42:22;8.90;99.90
15143;DHT22;7672;50.834;6.286;2023-12-22T00:44:49;9.00;99.90
15143;DHT22;7672;50.834;6.286;2023-12-22T00:47:16;9.00;99.90
15143;DHT22;7672;50.834;6.286;2023-12-22T00:49:42;9.00;99.90
15143;DHT22;7672;50.834;6.286;2023-12-22T00:52:10;9.00;99.90
15143;DHT22;7672;50.834;6.286;2023-12-22T00:54:36;9.00;99.90
15143;DHT22;7672;50.834;6.286;2023-12-22T00:57:03;9.00;99.90
15143;DHT22;7672;50.834;6.286;2023-12-22T00:59:30;9.10;99.90
15143;DHT22;7672;50.834;6.286;2023-12-22T01:01:57;9.10;99.90
15143;DHT22;7672;50.834;6.286;2023-12-22T01:04:24;9.10;99.90
15143;DHT22;7672;50.834;6.286;2023-12-22T01:06:51;9.10;99.90
15143;DHT22;7672;50.834;6.286;2023-12-22T01:09:19;9.10;99.90
15143;DHT22;7672;50.834;6.286;2023-12-22T01:11:46;9.10;99.90
15143;DHT22;7672;50.834;6.286;2023-12-22T01:14:13;9.10;99.90
15143;DHT22;7672;50.834;6.286;2023-12-22T01:16:40;9.10;99.90
15143;DHT22;7672;50.834;6.286;2023-12-22T01:19:07;9.20;99.90
15143;DHT22;7672;50.834;6.286;2023-12-22T01:21:34;9.20;99.90
15143;DHT22;7672;50.834;6.286;2023-12-22T01:24:01;9.20;99.90
15143;DHT22;7672;50.834;6.286;2023-12-22T01:26:28;9.20;99.90
15143;DHT22;7672;50.834;6.286;2023-12-22T01:28:55;9.20;99.90
15143;DHT22;7672;50.834;6.286;2023-12-22T01:31:22;9.20;99.90
15143;DHT22;7672;50.834;6.286;2023-12-22T01:33:49;9.30;99.90
15143;DHT22;7672;50.834;6.286;2023-12-22T01:36:16;9.30;99.90
15143;DHT22;7672;50.834;6.286;2023-12-22T01:38:43;9.30;99.90
15143;DHT22;7672;50.834;6.286;2023-12-22T01:41:10;9.30;99.90
15143;DHT22;7672;50.834;6.286;2023-12-22T01:43:37;9.30;99.90
15143;DHT22;7672;50.834;6.286;2023-12-22T01:46:04;9.40;99.90
15143;DHT22;7672;50.834;6.286;2023-12-22T01:48:32;9.40;99.90
15143;DHT22;7672;50.834;6.286;2023-12-22T01:51:01;9.40;99.90
15143;DHT22;7672;50.834;6.286;2023-12-22T01:53:29;9.40;99.90
15143;DHT22;7672;50.834;6.286;2023-12-22T01:55:57;9.30;99.90
15143;DHT22;7672;50.834;6.286;2023-12-22T01:58:27;9.30;99.90
15143;DHT22;7672;50.834;6.286;2023-12-22T02:00:57;9.30;99.90
15143;DHT22;7672;50.834;6.286;2023-12-22T02:03:24;9.30;99.90
15143;DHT22;7672;50.834;6.286;2023-12-22T02:05:52;9.20;99.90
15143;DHT22;7672;50.834;6.286;2023-12-22T02:08:19;9.20;99.90
15143;DHT22;7672;50.834;6.286;2023-12-22T02:10:48;9.20;99.90
15143;DHT22;7672;50.834;6.286;2023-12-22T02:13:15;9.20;99.90
15143;DHT22;7672;50.834;6.286;2023-12-22T02:15:42;9.20;99.90
15143;DHT22;7672;50.834;6.286;2023-12-22T02:18:21;9.20;99.90
15143;DHT22;7672;50.834;6.286;2023-12-22T02:20:48;9.20;99.90
15143;DHT22;7672;50.834;6.286;2023-12-22T02:23:15;9.20;99.90
15143;DHT22;7672;50.834;6.286;2023-12-22T02:25:42;9.10;99.90
15143;DHT22;7672;50.834;6.286;2023-12-22T02:28:13;9.10;99.90
15143;DHT22;7672;50.834;6.286;2023-12-22T02:30:54;9.10;99.90
15143;DHT22;7672;50.834;6.286;2023-12-22T02:33:24;9.10;99.90
15143;DHT22;7672;50.834;6.286;2023-12-22T02:35:58;9.10;99.90
15143;DHT22;7672;50.834;6.286;2023-12-22T02:38:29;9.10;99.90
15143;DHT22;7672;50.834;6.286;2023-12-22T02:40:57;9.10;99.90
15143;DHT22;7672;50.834;6.286;2023-12-22T02:43:24;9.10;99.90
15143;DHT22;7672;50.834;6.286;2023-12-22T02:45:51;9.10;99.90
15143;DHT22;7672;50.834;6.286;2023-12-22T02:48:18;9.10;99.90
15143;DHT22;7672;50.834;6.286;2023-12-22T02:50:45;9.10;99.90
15143;DHT22;7672;50.834;6.286;2023-12-22T02:53:12;9.10;99.90
15143;DHT22;7672;50.834;6.286;2023-12-22T02:55:39;9.10;99.90
15143;DHT22;7672;50.834;6.286;2023-12-22T02:58:06;9.10;99.90
15143;DHT22;7672;50.834;6.286;2023-12-22T03:00:33;9.10;99.90
15143;DHT22;7672;50.834;6.286;2023-12-22T03:03:00;9.10;99.90
15143;DHT22;7672;50.834;6.286;2023-12-22T03:05:27;9.10;99.90
15143;DHT22;7672;50.834;6.286;2023-12-22T03:07:54;9.10;99.90
15143;DHT22;7672;50.834;6.286;2023-12-22T03:10:21;9.10;99.90
15143;DHT22;7672;50.834;6.286;2023-12-22T03:12:47;9.10;99.90
15143;DHT22;7672;50.834;6.286;2023-12-22T03:15:14;9.10;99.90
15143;DHT22;7672;50.834;6.286;2023-12-22T03:17:41;9.10;99.90
15143;DHT22;7672;50.834;6.286;2023-12-22T03:20:08;9.20;99.90
15143;DHT22;7672;50.834;6.286;2023-12-22T03:22:35;9.20;99.90
15143;DHT22;7672;50.834;6.286;2023-12-22T03:25:02;9.20;99.90
15143;DHT22;7672;50.834;6.286;2023-12-22T03:27:31;9.20;99.90
15143;DHT22;7672;50.834;6.286;2023-12-22T03:29:58;9.20;99.90
15143;DHT22;7672;50.834;6.286;2023-12-22T03:32:25;9.20;99.90
15143;DHT22;7672;50.834;6.286;2023-12-22T03:34:52;9.20;99.90
15143;DHT22;7672;50.834;6.286;2023-12-22T03:37:18;9.20;99.90
15143;DHT22;7672;50.834;6.286;2023-12-22T03:39:45;9.10;99.90
15143;DHT22;7672;50.834;6.286;2023-12-22T03:42:12;9.20;99.90
15143;DHT22;7672;50.834;6.286;2023-12-22T03:44:39;9.20;99.90
15143;DHT22;7672;50.834;6.286;2023-12-22T03:47:06;9.20;99.90
15143;DHT22;7672;50.834;6.286;2023-12-22T03:49:33;9.20;99.90
15143;DHT22;7672;50.834;6.286;2023-12-22T03:51:59;9.20;99.90
15143;DHT22;7672;50.834;6.286;2023-12-22T03:54:26;9.10;99.90
15143;DHT22;7672;50.834;6.286;2023-12-22T03:56:53;9.10;99.90
15143;DHT22;7672;50.834;6.286;2023-12-22T03:59:20;9.20;99.90
15143;DHT22;7672;50.834;6.286;2023-12-22T04:01:51;9.10;99.90
15143;DHT22;7672;50.834;6.286;2023-12-22T04:04:22;9.10;99.90
15143;DHT22;7672;50.834;6.286;2023-12-22T04:06:50;9.10;99.90
15143;DHT22;7672;50.834;6.286;2023-12-22T04:09:17;9.10;99.90
15143;DHT22;7672;50.834;6.286;2023-12-22T04:11:44;9.20;99.90
15143;DHT22;7672;50.834;6.286;2023-12-22T04:14:11;9.10;99.90
15143;DHT22;7672;50.834;6.286;2023-12-22T04:16:37;9.20;99.90
15143;DHT22;7672;50.834;6.286;2023-12-22T04:19:05;9.20;99.90
15143;DHT22;7672;50.834;6.286;2023-12-22T04:21:37;9.20;99.90
15143;DHT22;7672;50.834;6.286;2023-12-22T04:24:04;9.20;99.90
15143;DHT22;7672;50.834;6.286;2023-12-22T04:26:31;9.20;99.90
15143;DHT22;7672;50.834;6.286;2023-12-22T04:28:58;9.20;99.90
15143;DHT22;7672;50.834;6.286;2023-12-22T04:31:25;9.30;99.90
15143;DHT22;7672;50.834;6.286;2023-12-22T04:33:52;9.30;99.90
15143;DHT22;7672;50.834;6.286;2023-12-22T04:36:18;9.30;99.90
15143;DHT22;7672;50.834;6.286;2023-12-22T04:38:46;9.30;99.90
15143;DHT22;7672;50.834;6.286;2023-12-22T04:41:13;9.30;99.90
15143;DHT22;7672;50.834;6.286;2023-12-22T04:43:39;9.30;99.90
15143;DHT22;7672;50.834;6.286;2023-12-22T04:46:06;9.30;99.90
15143;DHT22;7672;50.834;6.286;2023-12-22T04:48:33;9.30;99.90
15143;DHT22;7672;50.834;6.286;2023-12-22T04:51:00;9.30;99.90
15143;DHT22;7672;50.834;6.286;2023-12-22T04:53:27;9.30;99.90
15143;DHT22;7672;50.834;6.286;2023-12-22T04:55:54;9.40;99.90
15143;DHT22;7672;50.834;6.286;2023-12-22T04:58:21;9.40;99.90
15143;DHT22;7672;50.834;6.286;2023-12-22T05:00:48;9.40;99.90
15143;DHT22;7672;50.834;6.286;2023-12-22T05:03:16;9.40;99.90
15143;DHT22;7672;50.834;6.286;2023-12-22T05:05:42;9.40;99.90
15143;DHT22;7672;50.834;6.286;2023-12-22T05:08:09;9.20;99.90
15143;DHT22;7672;50.834;6.286;2023-12-22T05:10:36;9.40;99.90
15143;DHT22;7672;50.834;6.286;2023-12-22T05:13:03;9.40;99.90
15143;DHT22;7672;50.834;6.286;2023-12-22T05:15:30;9.40;99.90
15143;DHT22;7672;50.834;6.286;2023-12-22T05:17:57;9.50;99.90
15143;DHT22;7672;50.834;6.286;2023-12-22T05:20:24;9.50;99.90
15143;DHT22;7672;50.834;6.286;2023-12-22T05:22:51;9.50;99.90
15143;DHT22;7672;50.834;6.286;2023-12-22T05:25:17;9.50;99.90
15143;DHT22;7672;50.834;6.286;2023-12-22T05:27:44;9.50;99.90
15143;DHT22;7672;50.834;6.286;2023-12-22T05:30:12;10.00;99.90
15143;DHT22;7672;50.834;6.286;2023-12-22T05:32:39;9.60;99.90
15143;DHT22;7672;50.834;6.286;2023-12-22T05:35:06;9.60;99.90
15143;DHT22;7672;50.834;6.286;2023-12-22T05:37:33;9.60;99.90
15143;DHT22;7672;50.834;6.286;2023-12-22T05:40:00;9.70;99.90
15143;DHT22;7672;50.834;6.286;2023-12-22T05:42:30;9.70;99.90
15143;DHT22;7672;50.834;6.286;2023-12-22T05:44:57;9.70;99.90
15143;DHT22;7672;50.834;6.286;2023-12-22T05:47:24;9.70;99.90
15143;DHT22;7672;50.834;6.286;2023-12-22T05:49:51;9.70;99.90
15143;DHT22;7672;50.834;6.286;2023-12-22T05:52:18;9.70;99.90
15143;DHT22;7672;50.834;6.286;2023-12-22T05:54:45;9.80;99.90
15143;DHT22;7672;50.834;6.286;2023-12-22T05:57:12;9.80;99.90
15143;DHT22;7672;50.834;6.286;2023-12-22T05:59:39;9.70;99.90
15143;DHT22;7672;50.834;6.286;2023-12-22T06:02:06;9.80;99.90
15143;DHT22;7672;50.834;6.286;2023-12-22T06:04:33;9.80;99.90
15143;DHT22;7672;50.834;6.286;2023-12-22T06:07:00;9.70;99.90
15143;DHT22;7672;50.834;6.286;2023-12-22T06:09:27;9.80;99.90
15143;DHT22;7672;50.834;6.286;2023-12-22T06:11:54;9.80;99.90
15143;DHT22;7672;50.834;6.286;2023-12-22T06:14:21;9.80;99.90
15143;DHT22;7672;50.834;6.286;2023-12-22T06:16:49;9.80;99.90
15143;DHT22;7672;50.834;6.286;2023-12-22T06:19:17;9.80;99.90
15143;DHT22;7672;50.834;6.286;2023-12-22T06:21:44;9.80;99.90
15143;DHT22;7672;50.834;6.286;2023-12-22T06:24:11;9.80;99.90
15143;DHT22;7672;50.834;6.286;2023-12-22T06:26:38;9.80;99.90
15143;DHT22;7672;50.834;6.286;2023-12-22T06:29:04;9.80;99.90
15143;DHT22;7672;50.834;6.286;2023-12-22T06:31:31;9.80;99.90
15143;DHT22;7672;50.834;6.286;2023-12-22T06:33:58;9.80;99.90
15143;DHT22;7672;50.834;6.286;2023-12-22T06:36:29;9.80;99.90
15143;DHT22;7672;50.834;6.286;2023-12-22T06:38:58;9.80;99.90
15143;DHT22;7672;50.834;6.286;2023-12-22T06:41:30;9.80;99.90
15143;DHT22;7672;50.834;6.286;2023-12-22T06:43:58;9.90;99.90
15143;DHT22;7672;50.834;6.286;2023-12-22T06:46:27;9.90;99.90
15143;DHT22;7672;50.834;6.286;2023-12-22T06:48:56;9.90;99.90
15143;DHT22;7672;50.834;6.286;2023-12-22T06:51:26;9.90;99.90
15143;DHT22;7672;50.834;6.286;2023-12-22T06:53:54;9.90;99.90
15143;DHT22;7672;50.834;6.286;2023-12-22T06:56:28;9.90;99.90
15143;DHT22;7672;50.834;6.286;2023-12-22T06:58:57;9.90;99.90
15143;DHT22;7672;50.834;6.286;2023-12-22T07:01:32;9.90;99.90
15143;DHT22;7672;50.834;6.286;2023-12-22T07:04:00;9.90;99.90
15143;DHT22;7672;50.834;6.286;2023-12-22T07:06:29;9.90;99.90
15143;DHT22;7672;50.834;6.286;2023-12-22T07:11:50;9.90;99.90
15143;DHT22;7672;50.834;6.286;2023-12-22T07:14:17;9.90;99.90
15143;DHT22;7672;50.834;6.286;2023-12-22T07:16:44;9.90;99.90
15143;DHT22;7672;50.834;6.286;2023-12-22T07:19:12;9.90;99.90
15143;DHT22;7672;50.834;6.286;2023-12-22T07:21:42;9.90;99.90
15143;DHT22;7672;50.834;6.286;2023-12-22T07:24:13;10.00;99.90
15143;DHT22;7672;50.834;6.286;2023-12-22T07:26:42;9.90;99.90
15143;DHT22;7672;50.834;6.286;2023-12-22T07:29:11;10.00;99.90
15143;DHT22;7672;50.834;6.286;2023-12-22T07:31:38;10.00;99.90
15143;DHT22;7672;50.834;6.286;2023-12-22T07:34:05;10.00;99.90
15143;DHT22;7672;50.834;6.286;2023-12-22T07:36:34;10.00;99.90
15143;DHT22;7672;50.834;6.286;2023-12-22T07:39:11;10.00;99.90
15143;DHT22;7672;50.834;6.286;2023-12-22T07:41:39;10.00;99.90
15143;DHT22;7672;50.834;6.286;2023-12-22T07:44:06;10.00;99.90
15143;DHT22;7672;50.834;6.286;2023-12-22T07:46:34;10.00;99.90
15143;DHT22;7672;50.834;6.286;2023-12-22T07:49:01;10.00;99.90
15143;DHT22;7672;50.834;6.286;2023-12-22T07:51:28;10.00;99.90
15143;DHT22;7672;50.834;6.286;2023-12-22T07:53:55;10.00;99.90
15143;DHT22;7672;50.834;6.286;2023-12-22T07:56:22;10.00;99.90
15143;DHT22;7672;50.834;6.286;2023-12-22T07:58:49;10.00;99.90
15143;DHT22;7672;50.834;6.286;2023-12-22T08:01:16;10.00;99.90
15143;DHT22;7672;50.834;6.286;2023-12-22T08:03:43;10.00;99.90
15143;DHT22;7672;50.834;6.286;2023-12-22T08:06:10;10.10;99.90
15143;DHT22;7672;50.834;6.286;2023-12-22T08:08:38;10.10;99.90
15143;DHT22;7672;50.834;6.286;2023-12-22T08:11:05;10.10;99.90
15143;DHT22;7672;50.834;6.286;2023-12-22T08:13:32;10.10;99.90
15143;DHT22;7672;50.834;6.286;2023-12-22T08:15:59;10.10;99.90
15143;DHT22;7672;50.834;6.286;2023-12-22T08:18:25;10.10;99.90
15143;DHT22;7672;50.834;6.286;2023-12-22T08:20:52;10.10;99.90
15143;DHT22;7672;50.834;6.286;2023-12-22T08:23:20;10.10;99.90
15143;DHT22;7672;50.834;6.286;2023-12-22T08:25:48;10.10;99.90
15143;DHT22;7672;50.834;6.286;2023-12-22T08:28:16;10.10;99.90
15143;DHT22;7672;50.834;6.286;2023-12-22T08:30:43;10.20;99.90
15143;DHT22;7672;50.834;6.286;2023-12-22T08:33:10;10.20;99.90
15143;DHT22;7672;50.834;6.286;2023-12-22T08:35:37;10.20;99.90
15143;DHT22;7672;50.834;6.286;2023-12-22T08:38:04;10.20;99.90
15143;DHT22;7672;50.834;6.286;2023-12-22T08:40:31;10.20;99.90
15143;DHT22;7672;50.834;6.286;2023-12-22T08:42:58;10.40;99.90
15143;DHT22;7672;50.834;6.286;2023-12-22T08:45:28;10.30;99.90
15143;DHT22;7672;50.834;6.286;2023-12-22T08:47:56;10.30;99.90
15143;DHT22;7672;50.834;6.286;2023-12-22T08:50:24;10.30;99.90
15143;DHT22;7672;50.834;6.286;2023-12-22T08:52:51;10.40;99.90
15143;DHT22;7672;50.834;6.286;2023-12-22T08:55:19;10.40;99.90
15143;DHT22;7672;50.834;6.286;2023-12-22T08:57:46;10.50;99.90
15143;DHT22;7672;50.834;6.286;2023-12-22T09:00:25;10.50;99.90
15143;DHT22;7672;50.834;6.286;2023-12-22T09:02:52;10.50;99.90
15143;DHT22;7672;50.834;6.286;2023-12-22T09:05:20;10.60;99.90
15143;DHT22;7672;50.834;6.286;2023-12-22T09:07:48;10.60;99.90
15143;DHT22;7672;50.834;6.286;2023-12-22T09:10:16;10.60;99.90
15143;DHT22;7672;50.834;6.286;2023-12-22T09:12:43;10.60;99.90
15143;DHT22;7672;50.834;6.286;2023-12-22T09:15:10;10.70;99.90
15143;DHT22;7672;50.834;6.286;2023-12-22T09:17:37;10.70;99.90
15143;DHT22;7672;50.834;6.286;2023-12-22T09:20:04;10.70;99.90
15143;DHT22;7672;50.834;6.286;2023-12-22T09:22:31;10.80;99.90
15143;DHT22;7672;50.834;6.286;2023-12-22T09:24:58;10.80;99.90
15143;DHT22;7672;50.834;6.286;2023-12-22T09:27:25;10.80;99.90
15143;DHT22;7672;50.834;6.286;2023-12-22T09:29:57;10.90;99.90
15143;DHT22;7672;50.834;6.286;2023-12-22T09:32:23;10.90;99.90
15143;DHT22;7672;50.834;6.286;2023-12-22T09:34:50;11.00;99.90
15143;DHT22;7672;50.834;6.286;2023-12-22T09:37:17;11.00;99.90
15143;DHT22;7672;50.834;6.286;2023-12-22T09:39:44;11.10;99.90
15143;DHT22;7672;50.834;6.286;2023-12-22T09:42:11;11.10;99.90
15143;DHT22;7672;50.834;6.286;2023-12-22T09:44:39;11.10;99.90
15143;DHT22;7672;50.834;6.286;2023-12-22T09:47:07;11.20;99.90
15143;DHT22;7672;50.834;6.286;2023-12-22T09:49:35;11.20;99.90
15143;DHT22;7672;50.834;6.286;2023-12-22T09:52:04;11.20;99.90
15143;DHT22;7672;50.834;6.286;2023-12-22T09:54:32;11.30;99.90
15143;DHT22;7672;50.834;6.286;2023-12-22T09:57:00;11.30;99.90
15143;DHT22;7672;50.834;6.286;2023-12-22T09:59:48;11.30;99.90
15143;DHT22;7672;50.834;6.286;2023-12-22T10:02:15;11.30;99.90
15143;DHT22;7672;50.834;6.286;2023-12-22T10:04:42;11.30;99.90
15143;DHT22;7672;50.834;6.286;2023-12-22T10:07:10;11.40;99.90
15143;DHT22;7672;50.834;6.286;2023-12-22T10:09:41;11.40;99.90
15143;DHT22;7672;50.834;6.286;2023-12-22T10:12:09;11.40;99.90
15143;DHT22;7672;50.834;6.286;2023-12-22T10:14:38;11.40;99.90
15143;DHT22;7672;50.834;6.286;2023-12-22T10:17:07;11.40;99.90
15143;DHT22;7672;50.834;6.286;2023-12-22T10:19:34;11.40;99.90
15143;DHT22;7672;50.834;6.286;2023-12-22T10:22:01;11.40;99.90
15143;DHT22;7672;50.834;6.286;2023-12-22T10:24:42;11.50;99.90
15143;DHT22;7672;50.834;6.286;2023-12-22T10:27:10;11.50;99.90
15143;DHT22;7672;50.834;6.286;2023-12-22T10:29:37;11.50;99.90
15143;DHT22;7672;50.834;6.286;2023-12-22T10:32:07;11.60;99.90
15143;DHT22;7672;50.834;6.286;2023-12-22T10:34:35;11.60;99.90
15143;DHT22;7672;50.834;6.286;2023-12-22T10:37:02;11.60;99.90
15143;DHT22;7672;50.834;6.286;2023-12-22T10:39:31;11.60;99.90
15143;DHT22;7672;50.834;6.286;2023-12-22T10:41:59;11.70;99.90
15143;DHT22;7672;50.834;6.286;2023-12-22T10:44:28;11.70;99.90
15143;DHT22;7672;50.834;6.286;2023-12-22T10:46:56;11.70;99.90
15143;DHT22;7672;50.834;6.286;2023-12-22T10:49:24;11.80;99.90
15143;DHT22;7672;50.834;6.286;2023-12-22T10:51:52;11.80;99.90
15143;DHT22;7672;50.834;6.286;2023-12-22T10:54:19;11.90;99.90
15143;DHT22;7672;50.834;6.286;2023-12-22T10:56:46;11.90;99.90
15143;DHT22;7672;50.834;6.286;2023-12-22T10:59:17;12.00;99.90
15143;DHT22;7672;50.834;6.286;2023-12-22T11:01:45;12.10;99.90
15143;DHT22;7672;50.834;6.286;2023-12-22T11:04:17;12.10;99.90
15143;DHT22;7672;50.834;6.286;2023-12-22T11:06:47;12.20;99.90
15143;DHT22;7672;50.834;6.286;2023-12-22T11:09:17;12.20;99.90
15143;DHT22;7672;50.834;6.286;2023-12-22T11:11:45;12.30;99.90
15143;DHT22;7672;50.834;6.286;2023-12-22T11:14:13;12.40;99.90
15143;DHT22;7672;50.834;6.286;2023-12-22T11:16:41;12.40;99.90
15143;DHT22;7672;50.834;6.286;2023-12-22T11:19:14;12.50;99.90
15143;DHT22;7672;50.834;6.286;2023-12-22T11:21:42;12.50;99.90
15143;DHT22;7672;50.834;6.286;2023-12-22T11:24:11;12.50;99.90
15143;DHT22;7672;50.834;6.286;2023-12-22T11:26:41;12.50;99.90
15143;DHT22;7672;50.834;6.286;2023-12-22T11:29:10;12.60;99.90
15143;DHT22;7672;50.834;6.286;2023-12-22T11:31:38;12.60;99.90
15143;DHT22;7672;50.834;6.286;2023-12-22T11:34:07;12.60;99.90
15143;DHT22;7672;50.834;6.286;2023-12-22T11:36:43;12.60;99.90
15143;DHT22;7672;50.834;6.286;2023-12-22T11:39:12;12.70;99.90
15143;DHT22;7672;50.834;6.286;2023-12-22T11:41:40;12.70;99.90
15143;DHT22;7672;50.834;6.286;2023-12-22T11:44:07;12.70;99.90
15143;DHT22;7672;50.834;6.286;2023-12-22T11:46:35;12.70;99.90
15143;DHT22;7672;50.834;6.286;2023-12-22T11:49:02;12.70;99.90
15143;DHT22;7672;50.834;6.286;2023-12-22T11:51:34;12.80;99.90
15143;DHT22;7672;50.834;6.286;2023-12-22T11:54:01;12.70;99.90
15143;DHT22;7672;50.834;6.286;2023-12-22T11:56:29;12.70;99.90
15143;DHT22;7672;50.834;6.286;2023-12-22T11:58:57;12.70;99.90
15143;DHT22;7672;50.834;6.286;2023-12-22T12:01:28;12.70;99.90
15143;DHT22;7672;50.834;6.286;2023-12-22T12:04:00;12.70;99.90
15143;DHT22;7672;50.834;6.286;2023-12-22T12:08:56;12.60;99.90
15143;DHT22;7672;50.834;6.286;2023-12-22T12:12:08;12.60;99.90
15143;DHT22;7672;50.834;6.286;2023-12-22T12:14:13;12.60;99.90
15143;DHT22;7672;50.834;6.286;2023-12-22T12:16:42;12.60;99.90
15143;DHT22;7672;50.834;6.286;2023-12-22T12:19:10;12.60;99.90
15143;DHT22;7672;50.834;6.286;2023-12-22T12:21:39;12.60;99.90
15143;DHT22;7672;50.834;6.286;2023-12-22T12:24:09;12.60;99.90
15143;DHT22;7672;50.834;6.286;2023-12-22T12:26:36;12.70;99.90
15143;DHT22;7672;50.834;6.286;2023-12-22T12:29:03;12.60;99.90
15143;DHT22;7672;50.834;6.286;2023-12-22T12:31:37;12.60;99.90
15143;DHT22;7672;50.834;6.286;2023-12-22T12:34:05;12.60;99.90
15143;DHT22;7672;50.834;6.286;2023-12-22T12:36:32;12.60;99.90
15143;DHT22;7672;50.834;6.286;2023-12-22T12:39:06;12.70;99.90
15143;DHT22;7672;50.834;6.286;2023-12-22T12:41:41;12.70;99.90
15143;DHT22;7672;50.834;6.286;2023-12-22T12:44:08;12.70;99.90
15143;DHT22;7672;50.834;6.286;2023-12-22T12:46:38;12.70;99.90
15143;DHT22;7672;50.834;6.286;2023-12-22T12:49:10;12.70;99.90
15143;DHT22;7672;50.834;6.286;2023-12-22T12:51:49;12.80;99.90
15143;DHT22;7672;50.834;6.286;2023-12-22T12:54:16;12.70;99.90
15143;DHT22;7672;50.834;6.286;2023-12-22T12:56:45;12.80;99.90
15143;DHT22;7672;50.834;6.286;2023-12-22T12:59:15;12.80;99.90
15143;DHT22;7672;50.834;6.286;2023-12-22T13:01:44;12.80;99.90
15143;DHT22;7672;50.834;6.286;2023-12-22T13:04:12;12.80;99.90
15143;DHT22;7672;50.834;6.286;2023-12-22T13:06:43;12.90;99.90
15143;DHT22;7672;50.834;6.286;2023-12-22T13:09:10;12.80;99.90
15143;DHT22;7672;50.834;6.286;2023-12-22T13:11:38;12.70;99.90
15143;DHT22;7672;50.834;6.286;2023-12-22T13:14:06;12.70;99.90
15143;DHT22;7672;50.834;6.286;2023-12-22T13:16:35;12.70;99.90
15143;DHT22;7672;50.834;6.286;2023-12-22T13:19:02;12.70;99.90
15143;DHT22;7672;50.834;6.286;2023-12-22T13:21:30;12.70;99.90
15143;DHT22;7672;50.834;6.286;2023-12-22T13:24:26;12.70;99.90
15143;DHT22;7672;50.834;6.286;2023-12-22T13:27:04;12.70;99.90
15143;DHT22;7672;50.834;6.286;2023-12-22T13:29:43;12.70;99.90
15143;DHT22;7672;50.834;6.286;2023-12-22T13:32:18;12.70;99.90
15143;DHT22;7672;50.834;6.286;2023-12-22T13:34:53;12.70;99.90
15143;DHT22;7672;50.834;6.286;2023-12-22T13:37:20;12.70;99.90
15143;DHT22;7672;50.834;6.286;2023-12-22T13:39:48;12.70;99.90
15143;DHT22;7672;50.834;6.286;2023-12-22T13:42:17;12.70;99.90
15143;DHT22;7672;50.834;6.286;2023-12-22T13:44:47;12.60;99.90
15143;DHT22;7672;50.834;6.286;2023-12-22T13:47:16;12.60;99.90
15143;DHT22;7672;50.834;6.286;2023-12-22T13:49:43;12.60;99.90
15143;DHT22;7672;50.834;6.286;2023-12-22T13:52:30;12.60;99.90
15143;DHT22;7672;50.834;6.286;2023-12-22T13:55:13;12.60;99.90
15143;DHT22;7672;50.834;6.286;2023-12-22T13:57:41;12.60;99.90
15143;DHT22;7672;50.834;6.286;2023-12-22T14:02:50;12.60;99.90
15143;DHT22;7672;50.834;6.286;2023-12-22T14:05:18;12.50;99.90
15143;DHT22;7672;50.834;6.286;2023-12-22T14:07:45;12.50;99.90
15143;DHT22;7672;50.834;6.286;2023-12-22T14:10:12;12.60;99.90
15143;DHT22;7672;50.834;6.286;2023-12-22T14:12:41;12.50;99.90
15143;DHT22;7672;50.834;6.286;2023-12-22T14:15:12;12.50;99.90
15143;DHT22;7672;50.834;6.286;2023-12-22T14:17:39;12.50;99.90
15143;DHT22;7672;50.834;6.286;2023-12-22T14:20:09;12.50;99.90
15143;DHT22;7672;50.834;6.286;2023-12-22T14:22:37;12.60;99.90
15143;DHT22;7672;50.834;6.286;2023-12-22T14:25:05;12.50;99.90
15143;DHT22;7672;50.834;6.286;2023-12-22T14:27:32;12.50;99.90
15143;DHT22;7672;50.834;6.286;2023-12-22T14:30:00;12.50;99.90
15143;DHT22;7672;50.834;6.286;2023-12-22T14:32:27;12.50;99.90
15143;DHT22;7672;50.834;6.286;2023-12-22T14:34:56;12.40;99.90
15143;DHT22;7672;50.834;6.286;2023-12-22T14:37:23;12.40;99.90
15143;DHT22;7672;50.834;6.286;2023-12-22T14:39:50;12.40;99.90
15143;DHT22;7672;50.834;6.286;2023-12-22T14:42:18;12.40;99.90
15143;DHT22;7672;50.834;6.286;2023-12-22T14:44:45;12.40;99.90
15143;DHT22;7672;50.834;6.286;2023-12-22T14:47:12;12.40;99.90
15143;DHT22;7672;50.834;6.286;2023-12-22T14:49:40;12.30;99.90
15143;DHT22;7672;50.834;6.286;2023-12-22T14:52:07;12.40;99.90
15143;DHT22;7672;50.834;6.286;2023-12-22T14:54:35;12.30;99.90
15143;DHT22;7672;50.834;6.286;2023-12-22T14:57:01;12.30;99.90
15143;DHT22;7672;50.834;6.286;2023-12-22T14:59:29;12.30;99.90
15143;DHT22;7672;50.834;6.286;2023-12-22T15:01:56;12.30;99.90
15143;DHT22;7672;50.834;6.286;2023-12-22T15:04:23;12.30;99.90
15143;DHT22;7672;50.834;6.286;2023-12-22T15:06:51;12.20;99.90
15143;DHT22;7672;50.834;6.286;2023-12-22T15:09:27;12.20;99.90
15143;DHT22;7672;50.834;6.286;2023-12-22T15:11:54;12.20;99.90
15143;DHT22;7672;50.834;6.286;2023-12-22T15:14:22;12.20;99.90
15143;DHT22;7672;50.834;6.286;2023-12-22T15:16:50;12.10;99.90
15143;DHT22;7672;50.834;6.286;2023-12-22T15:19:19;12.20;99.90
15143;DHT22;7672;50.834;6.286;2023-12-22T15:21:47;12.10;99.90
15143;DHT22;7672;50.834;6.286;2023-12-22T15:24:13;12.10;99.90
15143;DHT22;7672;50.834;6.286;2023-12-22T15:26:40;12.10;99.90
15143;DHT22;7672;50.834;6.286;2023-12-22T15:29:08;12.00;99.90
15143;DHT22;7672;50.834;6.286;2023-12-22T15:31:35;12.00;99.90
15143;DHT22;7672;50.834;6.286;2023-12-22T15:34:04;12.00;99.90
15143;DHT22;7672;50.834;6.286;2023-12-22T15:36:33;12.00;99.90
15143;DHT22;7672;50.834;6.286;2023-12-22T15:39:00;12.00;99.90
15143;DHT22;7672;50.834;6.286;2023-12-22T15:41:30;12.00;99.90
15143;DHT22;7672;50.834;6.286;2023-12-22T15:43:59;11.90;99.90
15143;DHT22;7672;50.834;6.286;2023-12-22T15:46:26;11.90;99.90
15143;DHT22;7672;50.834;6.286;2023-12-22T15:48:53;11.90;99.90
15143;DHT22;7672;50.834;6.286;2023-12-22T15:51:20;11.90;99.90
15143;DHT22;7672;50.834;6.286;2023-12-22T15:53:47;11.90;99.90
15143;DHT22;7672;50.834;6.286;2023-12-22T15:56:14;11.90;99.90
15143;DHT22;7672;50.834;6.286;2023-12-22T15:58:43;11.90;99.90
15143;DHT22;7672;50.834;6.286;2023-12-22T16:01:11;11.90;99.90
15143;DHT22;7672;50.834;6.286;2023-12-22T16:03:39;11.90;99.90
15143;DHT22;7672;50.834;6.286;2023-12-22T16:06:07;11.80;99.90